Time;durP1;ratioP1;P1;durP2;ratioP2;P2;SDS_P1;SDS_P2;PMS_P1;PMS_P2;Temp;Humidity;BMP_temperature;BMP_pressure;BME280_temperature;BME280_humidity;BME280_pressure;Samples;Min_cycle;Max_cycle;Signal;HPM_P1;HPM_P2
2021/03/26 00:02:01;;;;;;;163.43;73.07;;;;;;;-1.26;58.36;99781.14;118195;1203;22892;-64
2021/03/26 00:04:29;;;;;;;174.30;75.20;;;;;;;-1.27;58.27;99788.33;118104;1203;22845;-64
2021/03/26 00:07:00;;;;;;;153.40;72.13;;;;;;;-1.30;58.25;99790.55;118200;1203;22858;-63
2021/03/26 00:09:31;;;;;;;174.15;72.00;;;;;;;-1.35;58.83;99784.88;118113;1203;22942;-63
2021/03/26 00:12:12;;;;;;;157.35;67.90;;;;;;;-1.38;58.83;99788.73;118187;1203;24085;-63
2021/03/26 00:14:41;;;;;;;166.60;72.85;;;;;;;-1.40;58.99;99787.23;117840;1205;22848;-63
2021/03/26 00:17:10;;;;;;;162.30;69.20;;;;;;;-1.41;58.99;99791.74;118215;1203;22819;-63
2021/03/26 00:19:38;;;;;;;157.17;70.30;;;;;;;-1.42;58.86;99790.08;118130;1203;23042;-63
2021/03/26 00:22:05;;;;;;;156.77;67.13;;;;;;;-1.39;58.59;99789.73;118195;1203;23086;-65
2021/03/26 00:24:33;;;;;;;164.87;69.37;;;;;;;-1.35;58.26;99791.06;118155;1203;22795;-65
2021/03/26 00:27:01;;;;;;;159.60;65.20;;;;;;;-1.32;58.54;99785.38;117914;1203;22860;-65
2021/03/26 00:29:29;;;;;;;150.83;66.83;;;;;;;-1.27;58.18;99787.50;118115;1203;22931;-65
2021/03/26 00:32:00;;;;;;;153.63;67.53;;;;;;;-1.24;58.38;99787.15;118209;1203;22861;-65
2021/03/26 00:34:28;;;;;;;153.65;68.20;;;;;;;-1.23;58.13;99788.81;118117;1203;22858;-65
2021/03/26 00:36:56;;;;;;;147.80;62.90;;;;;;;-1.22;58.29;99791.31;118250;1203;24043;-65
2021/03/26 00:39:24;;;;;;;138.20;62.03;;;;;;;-1.24;58.03;99784.48;117563;1203;22889;-64
2021/03/26 00:41:53;;;;;;;145.53;62.87;;;;;;;-1.24;58.01;99787.15;114065;1203;23273;-64
2021/03/26 00:44:22;;;;;;;135.07;61.27;;;;;;;-1.26;58.03;99786.48;114101;1203;24578;-64
2021/03/26 00:46:50;;;;;;;125.70;56.67;;;;;;;-1.28;58.22;99786.66;118183;1203;23596;-65
2021/03/26 00:49:18;;;;;;;131.10;59.03;;;;;;;-1.29;58.40;99792.17;118170;1203;22931;-65
2021/03/26 00:51:45;;;;;;;130.87;58.37;;;;;;;-1.35;58.18;99785.72;118162;1203;23020;-65
2021/03/26 00:54:17;;;;;;;142.23;59.70;;;;;;;-1.38;58.48;99786.05;118210;1203;22910;-65
2021/03/26 00:56:46;;;;;;;132.85;58.50;;;;;;;-1.37;58.40;99793.06;118137;1208;22785;-65
2021/03/26 00:59:14;;;;;;;129.33;60.37;;;;;;;-1.36;58.39;99791.23;118031;1203;23920;-65
2021/03/26 01:01:42;;;;;;;136.43;61.77;;;;;;;-1.35;58.36;99791.06;118105;1203;22859;-65
2021/03/26 01:04:10;;;;;;;133.57;58.00;;;;;;;-1.32;58.35;99793.39;118199;1204;23413;-65
2021/03/26 01:06:41;;;;;;;134.63;61.53;;;;;;;-1.27;58.37;99792.84;117873;1205;22828;-66
2021/03/26 01:09:09;;;;;;;134.67;61.40;;;;;;;-1.25;58.29;99797.01;117936;1203;23233;-65
2021/03/26 01:11:39;;;;;;;139.33;59.10;;;;;;;-1.23;58.14;99800.34;117829;1203;23685;-65
2021/03/26 01:14:23;;;;;;;134.35;56.90;;;;;;;-1.22;58.25;99802.01;117942;1203;23662;-65
2021/03/26 01:16:53;;;;;;;132.25;59.90;;;;;;;-1.18;58.27;99797.98;115284;1208;23106;-64
2021/03/26 01:19:23;;;;;;;131.83;56.70;;;;;;;-1.13;58.05;99794.77;113989;1203;23139;-64
2021/03/26 01:21:51;;;;;;;133.13;59.80;;;;;;;-1.08;57.87;99797.75;114043;1208;23419;-64
2021/03/26 01:24:19;;;;;;;131.60;55.90;;;;;;;-1.04;57.86;99792.89;114072;1208;25945;-63
2021/03/26 01:26:50;;;;;;;128.10;53.17;;;;;;;-1.00;57.43;99795.02;114093;1208;26102;-63
2021/03/26 01:29:25;;;;;;;124.77;53.83;;;;;;;-0.98;57.49;99805.53;118211;1203;22915;-64
2021/03/26 01:31:58;;;;;;;124.40;53.63;;;;;;;-0.95;57.40;99805.19;117787;1205;22876;-64
2021/03/26 01:34:27;;;;;;;125.50;54.47;;;;;;;-0.92;57.63;99800.33;118209;1203;22820;-64
2021/03/26 01:36:58;;;;;;;120.50;51.33;;;;;;;-0.87;57.44;99803.31;117838;1208;22915;-64
2021/03/26 01:39:26;;;;;;;124.43;52.07;;;;;;;-0.85;57.39;99805.78;118214;1203;22819;-64
2021/03/26 01:41:56;;;;;;;122.30;48.50;;;;;;;-0.83;57.24;99803.77;118061;1203;22848;-64
2021/03/26 01:44:25;;;;;;;124.50;52.20;;;;;;;-0.86;57.22;99807.63;117958;1203;22814;-64
2021/03/26 01:46:55;;;;;;;110.60;49.37;;;;;;;-0.87;56.74;99814.02;115116;1203;23211;-64
2021/03/26 01:49:24;;;;;;;114.40;48.90;;;;;;;-0.90;57.36;99808.17;118154;1206;23442;-65
2021/03/26 01:51:56;;;;;;;122.23;49.97;;;;;;;-0.96;57.57;99807.03;117838;1203;22798;-64
2021/03/26 01:54:31;;;;;;;114.80;51.47;;;;;;;-1.00;57.52;99811.06;118186;1203;22947;-65
2021/03/26 01:57:09;;;;;;;113.33;50.27;;;;;;;-1.02;57.52;99807.75;117939;1205;22840;-64
2021/03/26 01:59:42;;;;;;;128.70;50.97;;;;;;;-1.04;57.42;99808.94;118169;1204;22832;-65
2021/03/26 02:02:14;;;;;;;117.93;51.40;;;;;;;-1.04;57.63;99808.94;118141;1203;23483;-65
2021/03/26 02:05:06;;;;;;;118.43;50.27;;;;;;;-1.07;57.60;99813.63;117750;1205;22874;-65
2021/03/26 02:07:57;;;;;;;114.17;50.10;;;;;;;-1.11;57.28;99806.12;118022;1205;23530;-65
2021/03/26 02:10:27;;;;;;;109.83;51.37;;;;;;;-1.13;57.72;99811.64;117910;1204;23702;-66
2021/03/26 02:13:04;;;;;;;111.90;49.70;;;;;;;-1.18;57.86;99811.36;117836;1203;23506;-66
2021/03/26 02:15:44;;;;;;;114.05;48.15;;;;;;;-1.22;58.08;99815.38;117960;1203;22778;-65
2021/03/26 02:18:20;;;;;;;105.70;47.50;;;;;;;-1.28;58.17;99818.73;118078;1203;22859;-65
2021/03/26 02:20:54;;;;;;;98.43;46.43;;;;;;;-1.34;58.39;99819.45;118214;1203;22814;-65
2021/03/26 02:23:24;;;;;;;103.80;46.77;;;;;;;-1.35;58.50;99822.30;117817;1203;22848;-64
2021/03/26 02:26:13;;;;;;;109.60;49.60;;;;;;;-1.42;58.49;99819.47;117920;1203;23615;-64
2021/03/26 02:28:41;;;;;;;109.20;46.50;;;;;;;-1.44;58.73;99814.30;117811;1205;22869;-65
2021/03/26 02:31:26;;;;;;;106.10;48.97;;;;;;;-1.47;58.68;99811.16;117959;1203;22860;-65
2021/03/26 02:33:54;;;;;;;102.77;45.97;;;;;;;-1.50;59.00;99817.68;117839;1203;22816;-66
2021/03/26 02:36:34;;;;;;;114.63;46.50;;;;;;;-1.50;58.78;99822.19;117905;1206;23723;-65
2021/03/26 02:39:32;;;;;;;104.63;46.97;;;;;;;-1.55;59.39;99816.52;117739;1205;22917;-65
2021/03/26 02:42:04;;;;;;;113.10;46.83;;;;;;;-1.58;59.52;99828.38;118001;1203;22944;-65
2021/03/26 02:45:14;;;;;;;103.40;43.17;;;;;;;-1.61;59.59;99817.23;117859;1203;23012;-65
2021/03/26 02:47:55;;;;;;;98.73;44.20;;;;;;;-1.61;59.45;99826.08;117945;1203;23475;-65
2021/03/26 02:50:45;;;;;;;99.83;44.47;;;;;;;-1.64;59.47;99817.56;117748;1203;22989;-64
2021/03/26 02:53:17;;;;;;;99.30;42.60;;;;;;;-1.63;59.38;99816.56;117922;1205;22906;-64
2021/03/26 02:56:27;;;;;;;103.57;41.70;;;;;;;-1.60;59.29;99821.57;117851;1203;22797;-64
2021/03/26 02:59:04;;;;;;;102.10;42.40;;;;;;;-1.57;59.29;99819.36;117935;1203;23773;-65
2021/03/26 03:01:44;;;;;;;105.70;48.07;;;;;;;-1.56;59.16;99822.87;117827;1203;23675;-64
2021/03/26 03:04:24;;;;;;;106.30;47.90;;;;;;;-1.52;58.87;99829.54;117929;1205;22871;-64
2021/03/26 03:07:24;;;;;;;115.17;48.23;;;;;;;-1.51;58.69;99823.20;117828;1203;22833;-64
2021/03/26 03:10:54;;;;;;;113.70;45.33;;;;;;;-1.48;58.69;99826.36;117929;1203;22893;-65
2021/03/26 03:13:52;;;;;;;104.53;44.27;;;;;;;-1.45;58.42;99833.20;117918;1203;22988;-65
2021/03/26 03:16:34;;;;;;;105.87;40.33;;;;;;;-1.44;58.28;99833.00;117735;1205;23747;-64
2021/03/26 03:19:39;;;;;;;92.87;40.73;;;;;;;-1.43;58.12;99836.51;117813;1201;23005;-66
2021/03/26 03:22:34;;;;;;;99.20;41.80;;;;;;;-1.38;58.28;99847.52;118089;1203;23103;-65
2021/03/26 03:25:14;;;;;;;88.60;38.83;;;;;;;-1.31;57.95;99848.51;117907;1203;23561;-65
2021/03/26 03:28:16;;;;;;;83.80;34.95;;;;;;;-1.24;57.98;99848.63;117848;1205;22797;-64
2021/03/26 03:30:59;;;;;;;78.23;37.20;;;;;;;-1.18;57.94;99853.30;117850;1203;22875;-64
2021/03/26 03:33:49;;;;;;;80.10;36.10;;;;;;;-1.15;58.06;99856.42;117892;1203;23672;-64
2021/03/26 03:36:19;;;;;;;74.43;34.43;;;;;;;-1.12;58.34;99858.76;118124;1203;22978;-64
2021/03/26 03:39:06;;;;;;;88.77;38.30;;;;;;;-1.12;57.80;99860.59;117871;1201;22847;-64
2021/03/26 03:42:10;;;;;;;88.08;37.58;;;;;;;-1.12;58.10;99868.62;117808;1203;22835;-64
2021/03/26 03:44:43;;;;;;;84.90;37.53;;;;;;;-1.12;57.95;99865.95;117930;1203;22797;-64
2021/03/26 03:47:39;;;;;;;83.07;37.87;;;;;;;-1.12;58.04;99865.95;117854;1203;22791;-64
2021/03/26 03:50:26;;;;;;;97.70;44.80;;;;;;;-1.14;58.09;99873.30;117456;1208;22899;-64
2021/03/26 03:53:18;;;;;;;93.00;42.30;;;;;;;-1.15;58.08;99860.94;117378;1208;22970;-64
2021/03/26 03:56:00;;;;;;;79.60;35.50;;;;;;;-1.16;58.15;99870.83;117509;1207;23791;-64
2021/03/26 03:58:37;;;;;;;76.50;35.13;;;;;;;-1.16;57.97;99861.98;117294;1208;22960;-65
2021/03/26 04:01:17;;;;;;;73.70;34.13;;;;;;;-1.17;58.28;99874.51;117394;1207;23786;-65
2021/03/26 04:03:51;;;;;;;74.10;35.50;;;;;;;-1.24;58.21;99862.83;117432;1209;23530;-65
2021/03/26 04:06:21;;;;;;;72.80;33.70;;;;;;;-1.26;58.54;99864.84;117487;1209;23026;-65
2021/03/26 04:08:58;;;;;;;74.40;34.85;;;;;;;-1.28;58.61;99871.36;117325;1208;22948;-65
2021/03/26 04:11:35;;;;;;;81.27;35.13;;;;;;;-1.28;58.69;99871.36;117485;1208;22799;-65
2021/03/26 04:14:32;;;;;;;87.20;39.50;;;;;;;-1.28;59.29;99866.02;117388;1208;22863;-65
2021/03/26 04:17:11;;;;;;;119.60;51.00;;;;;;;-1.25;59.20;99865.67;117500;1212;22905;-65
2021/03/26 04:19:42;;;;;;;107.30;51.20;;;;;;;-1.17;59.23;99868.33;117333;1209;22857;-65
2021/03/26 04:22:13;;;;;;;110.35;46.10;;;;;;;-1.09;59.18;99869.11;117482;1206;23018;-65
2021/03/26 04:25:03;;;;;;;113.65;52.80;;;;;;;-0.97;58.97;99871.38;117322;1208;22990;-65
2021/03/26 04:27:40;;;;;;;111.30;51.25;;;;;;;-0.91;58.93;99874.20;117793;1203;22816;-65
2021/03/26 04:30:27;;;;;;;118.10;51.40;;;;;;;-0.80;58.93;99871.13;118217;1203;24104;-65
2021/03/26 04:33:05;;;;;;;210.23;83.47;;;;;;;-0.68;58.74;99876.06;117814;1203;22839;-65
2021/03/26 04:35:33;;;;;;;208.33;85.67;;;;;;;-0.59;58.57;99878.53;117954;1201;22907;-65
2021/03/26 04:38:21;;;;;;;185.60;76.60;;;;;;;-0.50;58.50;99881.97;117900;1206;22987;-65
2021/03/26 04:41:20;;;;;;;130.90;54.05;;;;;;;-0.39;58.49;99878.88;117896;1203;22866;-65
2021/03/26 04:43:57;;;;;;;;;;;;;;;-0.27;58.60;99884.63;117793;1210;22817;-66
2021/03/26 04:47:04;;;;;;;140.47;56.03;;;;;;;-0.19;59.03;99884.59;118212;1203;22039;-65
2021/03/26 04:49:44;;;;;;;141.10;52.00;;;;;;;-0.09;58.60;99877.96;117863;1203;22817;-65
2021/03/26 04:52:38;;;;;;;115.60;47.70;;;;;;;0.02;58.52;99881.21;117898;1203;22871;-65
2021/03/26 04:55:18;;;;;;;89.23;37.73;;;;;;;0.12;58.11;99888.00;117845;1203;23572;-63
2021/03/26 04:58:15;;;;;;;91.95;40.10;;;;;;;0.21;58.37;99891.42;118048;1207;22891;-65
2021/03/26 05:01:14;;;;;;;140.73;50.07;;;;;;;0.28;58.01;99898.56;117871;1203;22829;-66
2021/03/26 05:04:01;;;;;;;99.70;40.00;;;;;;;0.34;57.60;99903.17;117933;1203;22794;-64
2021/03/26 05:06:29;;;;;;;113.45;45.85;;;;;;;0.40;57.83;99893.58;117828;1205;22814;-64
2021/03/26 05:09:10;;;;;;;122.30;46.03;;;;;;;0.46;58.43;99902.72;117804;1203;22833;-64
2021/03/26 05:11:41;;;;;;;89.30;40.10;;;;;;;0.51;58.20;99900.33;117897;1203;24007;-64
2021/03/26 05:14:21;;;;;;;79.75;34.95;;;;;;;0.59;58.87;99898.38;117934;1203;23303;-64
2021/03/26 05:16:52;;;;;;;66.93;28.30;;;;;;;0.68;59.02;99905.34;117747;1203;22885;-64
2021/03/26 05:20:12;;;;;;;58.73;25.73;;;;;;;0.77;58.57;99905.23;117907;1204;22878;-65
2021/03/26 05:23:09;;;;;;;56.67;26.33;;;;;;;0.84;58.69;99909.69;118202;1203;22794;-65
2021/03/26 05:25:59;;;;;;;51.60;21.68;;;;;;;0.93;58.59;99900.51;117866;1203;22957;-64
2021/03/26 05:28:43;;;;;;;56.00;20.87;;;;;;;1.03;59.52;99913.63;117934;1203;22900;-64
2021/03/26 05:31:34;;;;;;;48.60;22.30;;;;;;;1.12;59.35;99909.84;117824;1203;23342;-64
2021/03/26 05:34:20;;;;;;;53.60;21.30;;;;;;;1.23;59.62;99921.94;117925;1203;22861;-64
2021/03/26 05:36:56;;;;;;;44.97;21.00;;;;;;;1.32;59.60;99915.42;117811;1203;22901;-64
2021/03/26 05:40:05;;;;;;;43.23;18.40;;;;;;;1.44;59.55;99910.42;117999;1203;22850;-64
2021/03/26 05:43:24;;;;;;;36.00;18.63;;;;;;;1.54;60.28;99916.31;117748;1205;22809;-65
2021/03/26 05:46:58;;;;;;;37.20;17.10;;;;;;;1.65;59.70;99910.42;117792;1205;22940;-67
2021/03/26 05:50:33;;;;;;;36.97;17.10;;;;;;;1.77;60.34;99919.64;117937;1203;22889;-66
2021/03/26 05:53:20;;;;;;;28.77;15.40;;;;;;;1.91;60.02;99924.12;117603;1206;23890;-65
2021/03/26 05:56:27;;;;;;;37.30;18.60;;;;;;;2.05;60.02;99925.90;117756;1206;22850;-65
2021/03/26 05:59:27;;;;;;;37.45;16.35;;;;;;;2.15;59.77;99922.08;117422;1209;22934;-65
2021/03/26 06:02:32;;;;;;;33.50;16.50;;;;;;;2.25;59.33;99928.77;117304;1208;22981;-65
2021/03/26 06:05:21;;;;;;;33.45;17.10;;;;;;;2.39;59.61;99927.85;117358;1209;25258;-65
2021/03/26 06:08:29;;;;;;;41.30;19.93;;;;;;;2.49;59.86;99924.81;117356;1208;22883;-63
2021/03/26 06:11:30;;;;;;;33.00;16.40;;;;;;;2.59;57.77;99925.31;117438;1208;22862;-64
2021/03/26 06:14:22;;;;;;;36.60;17.35;;;;;;;2.69;58.70;99924.95;117413;1208;23507;-63
2021/03/26 06:17:30;;;;;;;35.45;17.00;;;;;;;2.81;58.23;99923.38;117267;1208;22898;-64
2021/03/26 06:20:50;;;;;;;35.80;16.37;;;;;;;2.96;57.63;99924.08;117399;1208;22842;-64
2021/03/26 06:24:06;;;;;;;31.33;16.53;;;;;;;3.10;56.83;99920.42;117196;1208;22901;-64
2021/03/26 06:27:21;;;;;;;29.60;14.55;;;;;;;3.21;56.19;99932.48;117398;1209;22898;-64
2021/03/26 06:30:24;;;;;;;27.80;13.10;;;;;;;3.30;55.22;99931.30;117546;1205;22832;-64
2021/03/26 06:33:44;;;;;;;25.95;13.80;;;;;;;3.42;55.38;99929.68;117654;1205;23285;-63
2021/03/26 06:36:12;;;;;;;28.35;14.70;;;;;;;3.53;54.67;99929.09;117745;1205;22936;-65
2021/03/26 06:39:05;;;;;;;33.73;15.07;;;;;;;3.61;54.36;99919.98;117746;1205;22938;-64
2021/03/26 06:41:35;;;;;;;27.27;13.73;;;;;;;3.73;54.55;99923.77;117777;1206;22993;-65
2021/03/26 06:44:41;;;;;;;31.90;16.45;;;;;;;3.83;54.01;99926.05;117749;1205;24022;-65
2021/03/26 06:47:12;;;;;;;34.55;16.85;;;;;;;3.91;53.84;99929.38;117829;1205;22848;-65
2021/03/26 06:49:51;;;;;;;26.20;14.67;;;;;;;3.97;53.61;99921.52;117728;1205;22874;-65
2021/03/26 06:52:21;;;;;;;;;;;;;;;4.05;53.40;99926.70;117839;1210;23086;-65
2021/03/26 06:55:11;;;;;;;34.77;17.47;;;;;;;4.13;53.14;99927.34;117725;1205;21556;-65
2021/03/26 06:57:54;;;;;;;28.35;15.05;;;;;;;4.22;52.65;99923.39;117819;1205;22961;-65
2021/03/26 07:00:41;;;;;;;31.70;15.25;;;;;;;4.33;51.09;99927.33;117670;1203;23793;-64
2021/03/26 07:03:26;;;;;;;36.73;15.77;;;;;;;4.43;51.34;99926.94;118209;1203;22902;-65
2021/03/26 07:06:34;;;;;;;32.20;17.75;;;;;;;4.54;51.44;99929.00;116773;1209;23132;-64
2021/03/26 07:09:20;;;;;;;33.87;14.90;;;;;;;4.65;50.63;99925.66;118052;1203;23558;-65
2021/03/26 07:14:31;;;;;;;30.30;16.30;;;;;;;4.83;51.14;99930.41;113310;1205;25538;-65
2021/03/26 07:17:16;;;;;;;26.60;15.30;;;;;;;4.95;50.88;99929.55;117164;1209;22861;-66
2021/03/26 07:20:07;;;;;;;26.60;13.40;;;;;;;5.08;49.89;99933.25;117116;1212;22910;-65
2021/03/26 07:23:16;;;;;;;28.50;15.40;;;;;;;5.16;49.14;99927.63;117247;1208;22977;-65
2021/03/26 07:26:10;;;;;;;27.07;14.23;;;;;;;5.25;48.88;99937.15;117191;1208;22819;-65
2021/03/26 07:29:00;;;;;;;28.05;14.10;;;;;;;5.31;48.77;99934.44;117232;1209;24268;-65
2021/03/26 07:31:28;;;;;;;28.30;15.27;;;;;;;5.41;48.99;99935.84;117115;1212;22876;-65
2021/03/26 07:33:58;;;;;;;27.30;13.80;;;;;;;5.49;49.13;99938.29;117298;1208;23821;-65
2021/03/26 07:37:20;;;;;;;28.50;12.68;;;;;;;5.57;47.91;99946.17;117191;1209;22925;-65
2021/03/26 07:40:06;;;;;;;85.87;31.90;;;;;;;5.71;47.61;99942.35;116077;1212;23409;-63
2021/03/26 07:42:45;;;;;;;29.17;13.70;;;;;;;5.82;47.80;99938.95;113466;1212;23146;-63
2021/03/26 07:45:34;;;;;;;128.30;44.73;;;;;;;5.89;47.03;99942.50;117157;1209;23107;-64
2021/03/26 07:48:27;;;;;;;35.30;13.90;;;;;;;5.98;46.54;99951.17;117183;1209;22909;-64
2021/03/26 07:51:13;;;;;;;27.05;13.30;;;;;;;6.04;47.54;99944.91;117102;1209;22931;-64
2021/03/26 07:54:13;;;;;;;34.70;16.15;;;;;;;6.13;47.40;99950.87;117222;1212;22815;-64
2021/03/26 07:57:04;;;;;;;31.50;15.50;;;;;;;6.21;46.65;99950.59;116807;1212;24044;-64
2021/03/26 07:59:53;;;;;;;44.50;18.50;;;;;;;6.32;46.79;99953.44;116831;1212;23552;-64
2021/03/26 08:02:39;;;;;;;48.05;21.90;;;;;;;6.41;46.68;99943.16;116184;1212;24055;-63
2021/03/26 08:05:29;;;;;;;68.85;27.65;;;;;;;6.58;47.33;99943.44;116808;1212;23075;-64
2021/03/26 08:08:28;;;;;;;39.65;15.65;;;;;;;6.70;46.67;99953.32;116728;1212;23872;-64
2021/03/26 08:11:00;;;;;;;34.70;16.17;;;;;;;6.77;46.67;99950.56;116858;1212;22876;-64
2021/03/26 08:13:40;;;;;;;25.17;14.37;;;;;;;6.82;47.74;99955.30;116754;1214;23027;-64
2021/03/26 08:16:40;;;;;;;21.25;12.70;;;;;;;6.86;46.54;99961.93;116825;1217;22929;-65
2021/03/26 08:19:32;;;;;;;33.15;17.05;;;;;;;6.90;47.12;99955.02;116777;1212;22967;-66
2021/03/26 08:22:26;;;;;;;31.10;16.50;;;;;;;7.01;46.81;99957.81;116772;1212;22872;-65
2021/03/26 08:25:05;;;;;;;29.90;16.95;;;;;;;7.13;47.32;99955.19;116873;1212;22869;-66
2021/03/26 08:27:53;;;;;;;37.50;17.30;;;;;;;7.19;48.23;99953.47;116682;1218;22957;-65
2021/03/26 08:30:26;;;;;;;;;;;;;;;7.27;47.78;99948.56;116827;1220;22923;-65
2021/03/26 08:33:08;;;;;;;27.85;14.05;;;;;;;7.37;46.91;99958.87;116978;1209;21447;-65
2021/03/26 08:35:46;;;;;;;32.90;17.55;;;;;;;7.46;46.56;99952.11;117219;1209;22849;-65
2021/03/26 08:38:16;;;;;;;26.03;14.13;;;;;;;7.53;46.99;99954.72;117135;1212;22841;-65
2021/03/26 08:40:59;;;;;;;22.63;12.73;;;;;;;7.59;47.23;99953.82;117149;1209;22828;-65
2021/03/26 08:43:29;;;;;;;22.55;13.35;;;;;;;7.67;46.61;99954.33;117127;1209;23508;-64
2021/03/26 08:46:16;;;;;;;19.50;11.90;;;;;;;7.75;46.42;99955.91;116060;1213;23280;-65
2021/03/26 08:48:58;;;;;;;23.53;11.87;;;;;;;7.80;46.08;99958.74;117127;1209;22860;-66
2021/03/26 08:51:44;;;;;;;21.50;12.10;;;;;;;7.88;45.55;99952.19;117112;1212;23043;-64
2021/03/26 08:54:15;;;;;;;20.30;11.40;;;;;;;7.97;45.82;99958.94;117113;1211;22890;-65
2021/03/26 08:57:35;;;;;;;20.95;12.00;;;;;;;8.02;45.65;99954.48;117198;1212;22931;-66
2021/03/26 09:00:24;;;;;;;27.40;15.00;;;;;;;8.10;45.94;99953.31;116772;1212;22837;-65
2021/03/26 09:03:19;;;;;;;26.43;14.13;;;;;;;8.19;46.70;99956.55;116859;1212;22920;-66
2021/03/26 09:06:28;;;;;;;24.05;12.60;;;;;;;8.26;45.55;99952.66;116868;1212;22828;-65
2021/03/26 09:09:10;;;;;;;25.93;13.40;;;;;;;8.37;44.72;99962.73;116714;1214;24159;-65
2021/03/26 09:11:42;;;;;;;31.23;15.37;;;;;;;8.41;44.51;99963.94;116809;1212;23566;-65
2021/03/26 09:14:46;;;;;;;24.30;12.80;;;;;;;8.47;44.69;99948.61;116745;1212;23097;-66
2021/03/26 09:17:53;;;;;;;24.75;12.15;;;;;;;8.54;44.57;99953.92;116891;1212;22810;-66
2021/03/26 09:20:29;;;;;;;21.40;13.20;;;;;;;8.62;44.45;99954.42;116746;1212;22889;-66
2021/03/26 09:23:09;;;;;;;20.40;11.70;;;;;;;8.72;44.25;99953.83;116794;1214;22944;-66
2021/03/26 09:26:14;;;;;;;25.80;11.95;;;;;;;8.77;43.94;99957.50;116680;1218;22940;-66
2021/03/26 09:28:46;;;;;;;19.40;11.20;;;;;;;8.82;44.50;99959.49;116713;1215;23784;-65
2021/03/26 09:31:20;;;;;;;31.05;12.60;;;;;;;8.91;43.78;99954.55;116746;1214;22947;-65
2021/03/26 09:34:02;;;;;;;27.80;13.30;;;;;;;9.01;43.54;99962.93;116764;1217;24262;-65
2021/03/26 09:36:35;;;;;;;20.60;11.30;;;;;;;9.10;42.98;99956.06;116875;1211;22920;-65
2021/03/26 09:39:14;;;;;;;18.17;11.13;;;;;;;9.13;42.35;99959.14;116882;1211;22916;-65
2021/03/26 09:41:49;;;;;;;20.90;10.80;;;;;;;9.17;42.93;99967.65;116965;1212;23983;-65
2021/03/26 09:44:22;;;;;;;18.35;10.10;;;;;;;9.18;42.68;99964.70;116985;1215;23064;-65
2021/03/26 09:47:05;;;;;;;25.97;11.17;;;;;;;9.23;42.73;99963.99;117073;1212;22838;-65
2021/03/26 09:49:39;;;;;;;16.35;8.55;;;;;;;9.24;42.04;99965.62;116927;1212;23794;-65
2021/03/26 09:52:42;;;;;;;17.30;8.50;;;;;;;9.27;41.37;99962.42;116860;1215;23025;-66
2021/03/26 09:55:19;;;;;;;14.00;8.40;;;;;;;9.26;41.61;99970.82;117189;1209;23533;-65
2021/03/26 09:58:04;;;;;;;13.90;8.50;;;;;;;9.29;41.81;99964.91;117198;1215;23280;-66
2021/03/26 10:00:57;;;;;;;16.30;7.57;;;;;;;9.41;39.97;99973.88;117206;1209;22794;-65
2021/03/26 10:03:44;;;;;;;14.30;8.83;;;;;;;9.47;39.12;99965.59;117169;1209;22839;-65
2021/03/26 10:06:16;;;;;;;16.03;6.47;;;;;;;9.45;39.05;99967.72;117104;1212;22942;-65
2021/03/26 10:11:32;;;;;;;9.10;5.50;;;;;;;9.50;36.04;99970.56;117117;1209;23897;-65
2021/03/26 10:14:03;;;;;;;9.60;4.93;;;;;;;9.53;35.20;99970.06;117190;1209;23008;-65
2021/03/26 10:16:34;;;;;;;12.90;6.25;;;;;;;9.56;35.95;99972.30;117137;1209;22976;-65
2021/03/26 10:19:36;;;;;;;9.85;5.30;;;;;;;9.60;35.54;99974.55;117213;1209;22898;-66
2021/03/26 10:22:39;;;;;;;10.75;5.15;;;;;;;9.62;36.39;99961.54;117111;1209;22890;-67
2021/03/26 10:25:29;;;;;;;11.15;6.55;;;;;;;9.66;36.36;99968.98;117123;1215;22945;-64
2021/03/26 10:28:23;;;;;;;10.90;6.10;;;;;;;9.72;36.05;99970.73;117093;1213;22848;-65
2021/03/26 10:31:01;;;;;;;14.15;6.80;;;;;;;9.79;35.84;99971.42;117201;1208;22907;-65
2021/03/26 10:33:45;;;;;;;10.55;6.10;;;;;;;9.82;35.79;99957.31;117080;1209;22967;-65
2021/03/26 10:36:23;;;;;;;9.25;5.55;;;;;;;9.80;35.87;99961.38;117191;1209;22807;-65
2021/03/26 10:39:21;;;;;;;12.90;5.85;;;;;;;9.77;35.33;99964.57;117115;1209;22956;-65
2021/03/26 10:42:13;;;;;;;15.30;7.80;;;;;;;9.77;35.58;99956.41;117218;1209;22851;-66
2021/03/26 10:45:17;;;;;;;38.95;19.90;;;;;;;9.76;36.08;99955.58;117209;1209;23202;-66
2021/03/26 10:47:59;;;;;;;11.70;7.55;;;;;;;9.77;35.57;99954.52;117113;1209;28400;-66
2021/03/26 10:50:36;;;;;;;11.55;7.20;;;;;;;9.74;36.06;99960.43;117182;1209;23509;-67
2021/03/26 10:53:10;;;;;;;9.33;6.30;;;;;;;9.74;36.47;99957.71;117086;1209;24216;-66
2021/03/26 10:55:52;;;;;;;12.80;7.00;;;;;;;9.77;36.07;99959.13;117217;1209;23497;-65
2021/03/26 10:58:49;;;;;;;14.90;8.90;;;;;;;9.81;35.39;99965.75;117050;1209;22878;-67
2021/03/26 11:01:21;;;;;;;11.35;7.15;;;;;;;9.83;34.64;99955.42;116887;1212;22944;-66
2021/03/26 11:03:54;;;;;;;24.90;14.50;;;;;;;9.80;35.53;99953.20;116749;1216;22909;-66
2021/03/26 11:06:30;;;;;;;15.00;7.60;;;;;;;9.81;35.53;99952.94;116866;1212;22948;-66
2021/03/26 11:09:03;;;;;;;18.50;7.80;;;;;;;9.85;35.88;99959.55;116805;1212;22842;-66
2021/03/26 11:11:49;;;;;;;27.35;13.85;;;;;;;9.89;36.62;99957.19;116820;1211;22999;-66
2021/03/26 11:14:42;;;;;;;13.45;7.10;;;;;;;9.96;36.22;99951.58;116753;1212;22952;-66
2021/03/26 11:17:18;;;;;;;13.60;7.20;;;;;;;9.98;36.33;99949.44;116894;1211;22931;-66
2021/03/26 11:20:18;;;;;;;13.05;7.05;;;;;;;9.96;36.34;99948.86;116801;1212;25939;-65
2021/03/26 11:23:25;;;;;;;18.25;10.70;;;;;;;9.95;37.35;99942.61;116817;1212;23120;-65
2021/03/26 11:26:05;;;;;;;18.00;7.00;;;;;;;9.97;37.30;99955.95;115579;1216;25995;-64
2021/03/26 11:29:29;;;;;;;10.37;7.07;;;;;;;10.01;36.98;99948.96;116903;1212;22817;-65
2021/03/26 11:32:06;;;;;;;10.85;5.10;;;;;;;10.03;37.20;99942.20;116690;1217;23050;-65
2021/03/26 11:34:47;;;;;;;10.90;6.65;;;;;;;10.06;37.97;99949.06;116441;1216;23241;-64
2021/03/26 11:37:32;;;;;;;9.35;5.65;;;;;;;10.06;38.16;99952.62;116578;1213;22845;-65
2021/03/26 11:40:17;;;;;;;19.30;10.00;;;;;;;10.10;38.37;99953.76;116800;1212;23028;-65
2021/03/26 11:42:45;;;;;;;15.00;5.45;;;;;;;10.11;38.07;99946.41;116882;1212;22819;-65
2021/03/26 11:45:52;;;;;;;60.55;29.25;;;;;;;10.09;38.59;99941.24;113999;1213;23196;-64
2021/03/26 11:48:27;;;;;;;31.90;14.98;;;;;;;10.10;38.58;99945.59;116794;1212;22956;-65
2021/03/26 11:51:06;;;;;;;17.80;9.50;;;;;;;10.10;38.72;99937.42;116689;1214;22906;-65
2021/03/26 11:53:42;;;;;;;14.70;8.00;;;;;;;10.16;38.95;99943.80;116742;1215;24180;-65
2021/03/26 11:56:38;;;;;;;7.65;3.70;;;;;;;10.18;38.35;99938.94;116706;1218;23669;-65
2021/03/26 11:59:38;;;;;;;10.00;5.80;;;;;;;10.18;38.90;99941.66;116777;1215;22883;-65
2021/03/26 12:02:14;;;;;;;10.90;6.65;;;;;;;10.22;39.14;99929.25;116700;1214;22919;-64
2021/03/26 12:04:56;;;;;;;7.65;3.45;;;;;;;10.27;38.72;99938.31;116776;1215;22850;-65
2021/03/26 12:07:29;;;;;;;14.20;7.55;;;;;;;10.33;38.60;99939.23;116764;1212;22903;-64
2021/03/26 12:10:20;;;;;;;9.30;4.10;;;;;;;10.34;39.27;99926.45;116922;1212;22924;-65
2021/03/26 12:12:50;;;;;;;10.15;4.75;;;;;;;10.39;38.42;99934.72;116762;1216;23137;-65
2021/03/26 12:15:35;;;;;;;9.25;4.70;;;;;;;10.38;38.53;99928.44;116707;1212;23950;-65
2021/03/26 12:18:12;;;;;;;12.40;7.40;;;;;;;10.37;39.28;99920.52;116736;1212;22847;-65
2021/03/26 12:20:41;;;;;;;6.65;4.03;;;;;;;10.40;38.79;99925.45;116915;1212;22864;-65
2021/03/26 12:23:37;;;;;;;10.20;5.30;;;;;;;10.40;38.87;99914.55;116950;1212;22869;-65
2021/03/26 12:26:40;;;;;;;13.20;4.50;;;;;;;10.40;38.82;99928.16;117207;1215;23778;-66
2021/03/26 12:29:31;;;;;;;7.33;4.10;;;;;;;10.39;38.41;99938.23;117146;1211;23967;-66
2021/03/26 12:32:21;;;;;;;9.85;4.25;;;;;;;10.38;38.67;99916.72;117053;1211;22917;-65
2021/03/26 12:35:02;;;;;;;5.80;3.40;;;;;;;10.38;38.79;99916.72;117186;1212;23864;-66
2021/03/26 12:37:35;;;;;;;6.85;3.95;;;;;;;10.38;38.81;99919.45;117069;1212;23009;-66